createdAt,value
2016-11-26T00:00:12.798Z,66.61
2016-11-26T00:01:13.342Z,66.66
2016-11-26T00:02:13.328Z,66.71
2016-11-26T00:03:13.101Z,66.50
2016-11-26T00:04:12.713Z,65.62
2016-11-26T00:05:14.088Z,65.37
2016-11-26T00:06:14.544Z,65.23
2016-11-26T00:07:13.686Z,65.30
2016-11-26T00:08:13.115Z,65.24
2016-11-26T00:09:12.006Z,66.24
2016-11-26T00:10:12.656Z,66.44
2016-11-26T00:11:13.110Z,66.57
2016-11-26T00:12:12.227Z,66.55
2016-11-26T00:13:13.784Z,66.56
2016-11-26T00:14:15.512Z,66.64
2016-11-26T00:15:13.545Z,66.61
2016-11-26T00:16:12.648Z,66.61
2016-11-26T00:17:14.369Z,66.68
2016-11-26T00:18:12.356Z,66.63
2016-11-26T00:19:12.969Z,66.63
2016-11-26T00:20:13.573Z,66.64
2016-11-26T00:21:13.059Z,66.71
2016-11-26T00:22:13.585Z,66.71
2016-11-26T00:23:11.503Z,66.63
2016-11-26T00:24:13.104Z,66.60
2016-11-26T00:25:12.931Z,66.61
2016-11-26T00:26:11.858Z,66.59
2016-11-26T00:27:13.506Z,66.64
2016-11-26T00:28:13.778Z,66.64
2016-11-26T00:29:12.732Z,66.60
2016-11-26T00:30:13.350Z,66.62
2016-11-26T00:31:13.043Z,66.69
2016-11-26T00:32:12.102Z,66.60
2016-11-26T00:33:12.802Z,66.68
2016-11-26T00:34:13.446Z,66.62
2016-11-26T00:35:12.962Z,66.66
2016-11-26T00:36:12.458Z,66.59
2016-11-26T00:37:12.455Z,66.70
2016-11-26T00:38:13.164Z,66.66
2016-11-26T00:39:12.632Z,66.67
2016-11-26T00:40:14.225Z,66.60
2016-11-26T00:41:12.732Z,66.57
2016-11-26T00:42:13.373Z,66.72
2016-11-26T00:43:12.480Z,66.59
2016-11-26T00:44:12.974Z,66.53
2016-11-26T00:45:12.097Z,66.54
2016-11-26T00:46:12.736Z,66.67
2016-11-26T00:47:12.831Z,66.58
2016-11-26T00:48:12.830Z,66.51
2016-11-26T00:49:12.927Z,66.53
2016-11-26T00:50:12.729Z,66.55
2016-11-26T00:51:13.839Z,66.69
2016-11-26T00:52:19.319Z,66.54
2016-11-26T00:53:13.277Z,66.54
2016-11-26T00:54:13.978Z,66.56
2016-11-26T00:55:12.758Z,66.56
2016-11-26T00:56:13.347Z,66.45
2016-11-26T00:57:12.999Z,66.53
2016-11-26T00:58:12.773Z,66.56
2016-11-26T00:59:12.936Z,66.50
2016-11-26T01:00:12.713Z,66.67
2016-11-26T01:01:10.842Z,66.56
2016-11-26T01:02:13.455Z,66.54
2016-11-26T01:03:13.290Z,66.50
2016-11-26T01:04:13.071Z,66.45
2016-11-26T01:05:13.088Z,66.47
2016-11-26T01:06:12.817Z,66.47
2016-11-26T01:07:13.464Z,65.48
2016-11-26T01:08:13.447Z,65.53
2016-11-26T01:09:12.858Z,66.07
2016-11-26T01:10:11.627Z,66.41
2016-11-26T01:11:13.093Z,66.43
2016-11-26T01:12:12.267Z,66.53
2016-11-26T01:13:12.689Z,66.48
2016-11-26T01:14:14.280Z,66.49
2016-11-26T01:15:12.344Z,66.47
2016-11-26T01:16:12.989Z,66.47
2016-11-26T01:17:12.665Z,66.57
2016-11-26T01:18:11.815Z,66.64
2016-11-26T01:19:12.833Z,65.56
2016-11-26T01:20:15.199Z,65.34
2016-11-26T01:21:12.815Z,65.34
2016-11-26T01:22:13.373Z,65.22
2016-11-26T01:23:12.460Z,65.28
2016-11-26T01:24:13.257Z,65.16
2016-11-26T01:25:13.159Z,65.20
2016-11-26T01:26:13.863Z,65.23
2016-11-26T01:27:13.720Z,65.19
2016-11-26T01:28:13.754Z,65.41
2016-11-26T01:29:14.294Z,66.22
2016-11-26T01:30:16.809Z,66.47
2016-11-26T01:31:13.617Z,66.54
2016-11-26T01:32:14.239Z,66.56
2016-11-26T01:33:14.371Z,66.61
2016-11-26T01:34:14.103Z,66.63
2016-11-26T01:35:13.941Z,66.58
2016-11-26T01:36:18.143Z,66.62
2016-11-26T01:37:15.431Z,66.72
2016-11-26T01:38:20.403Z,66.73
2016-11-26T01:39:18.171Z,66.66
2016-11-26T01:40:14.514Z,66.62
2016-11-26T01:41:13.589Z,66.76
2016-11-26T01:42:14.412Z,66.65
2016-11-26T01:43:13.400Z,66.62
2016-11-26T01:44:12.308Z,66.55
2016-11-26T01:45:13.921Z,66.63
2016-11-26T01:46:14.668Z,66.74
2016-11-26T01:47:13.792Z,66.74
2016-11-26T01:48:13.161Z,66.63
2016-11-26T01:49:12.369Z,66.72
2016-11-26T01:50:14.181Z,66.67
2016-11-26T01:51:13.725Z,66.78
2016-11-26T01:52:14.327Z,66.65
2016-11-26T01:53:15.918Z,66.80
2016-11-26T01:54:14.543Z,66.66
2016-11-26T01:55:13.274Z,66.73
2016-11-26T01:56:14.696Z,66.67
2016-11-26T01:57:10.932Z,66.80
2016-11-26T01:58:15.212Z,66.61
2016-11-26T01:59:18.154Z,66.56
2016-11-26T02:00:14.081Z,66.58
2016-11-26T02:01:14.669Z,66.67
2016-11-26T02:02:13.000Z,66.58
2016-11-26T02:03:13.455Z,66.51
2016-11-26T02:04:14.601Z,66.51
2016-11-26T02:05:12.516Z,66.53
2016-11-26T02:06:15.428Z,66.48
2016-11-26T02:07:13.392Z,66.44
2016-11-26T02:08:14.981Z,66.47
2016-11-26T02:09:13.299Z,66.46
2016-11-26T02:10:14.187Z,66.40
2016-11-26T02:11:14.746Z,66.42
2016-11-26T02:12:12.619Z,66.40
2016-11-26T02:13:12.762Z,66.43
2016-11-26T02:14:14.262Z,66.45
2016-11-26T02:15:13.586Z,66.42
2016-11-26T02:16:13.378Z,66.42
2016-11-26T02:17:14.792Z,66.48
2016-11-26T02:18:15.058Z,66.38
2016-11-26T02:19:12.121Z,66.37
2016-11-26T02:20:13.614Z,66.38
2016-11-26T02:21:13.092Z,66.33
2016-11-26T02:22:12.187Z,66.34
2016-11-26T02:23:12.496Z,66.34
2016-11-26T02:24:12.898Z,66.33
2016-11-26T02:25:13.792Z,66.42
2016-11-26T02:26:14.705Z,66.30
2016-11-26T02:27:14.600Z,66.33
2016-11-26T02:28:14.231Z,66.34
2016-11-26T02:29:15.002Z,66.36
2016-11-26T02:30:17.950Z,66.32
2016-11-26T02:31:14.722Z,66.32
2016-11-26T02:32:13.617Z,66.41
2016-11-26T02:33:13.462Z,66.31
2016-11-26T02:34:13.320Z,66.27
2016-11-26T02:35:14.824Z,66.29
2016-11-26T02:36:12.802Z,66.38
2016-11-26T02:37:15.219Z,66.36
2016-11-26T02:38:15.061Z,66.57
2016-11-26T02:39:14.045Z,66.45
2016-11-26T02:40:14.146Z,66.54
2016-11-26T02:41:15.133Z,66.51
2016-11-26T02:42:14.520Z,66.44
2016-11-26T02:43:14.289Z,66.49
2016-11-26T02:44:13.222Z,66.44
2016-11-26T02:45:12.906Z,66.56
2016-11-26T02:46:14.241Z,66.59
2016-11-26T02:47:13.094Z,66.53
2016-11-26T02:48:13.182Z,66.67
2016-11-26T02:49:12.741Z,66.56
2016-11-26T02:50:12.765Z,66.51
2016-11-26T02:51:13.410Z,66.46
2016-11-26T02:52:13.383Z,66.44
2016-11-26T02:53:13.066Z,66.46
2016-11-26T02:54:13.412Z,66.44
2016-11-26T02:55:14.061Z,66.45
2016-11-26T02:56:13.095Z,66.59
2016-11-26T02:57:12.581Z,66.76
2016-11-26T02:58:12.731Z,66.51
2016-11-26T02:59:13.340Z,66.43
2016-11-26T03:00:13.425Z,66.60
2016-11-26T03:01:12.835Z,66.55
2016-11-26T03:02:12.785Z,66.53
2016-11-26T03:03:12.734Z,66.50
2016-11-26T03:04:14.325Z,66.68
2016-11-26T03:05:13.268Z,66.54
2016-11-26T03:06:12.226Z,66.59
2016-11-26T03:07:13.991Z,66.51
2016-11-26T03:08:12.041Z,66.62
2016-11-26T03:09:10.273Z,66.66
2016-11-26T03:10:13.102Z,66.68
2016-11-26T03:11:14.697Z,66.54
2016-11-26T03:12:13.334Z,66.66
2016-11-26T03:13:13.495Z,66.62
2016-11-26T03:14:12.524Z,66.57
2016-11-26T03:15:12.605Z,66.64
2016-11-26T03:16:13.736Z,66.52
2016-11-26T03:17:12.845Z,66.47
2016-11-26T03:18:12.163Z,66.53
2016-11-26T03:19:11.323Z,65.66
2016-11-26T03:20:13.593Z,65.43
2016-11-26T03:21:13.274Z,65.20
2016-11-26T03:22:12.934Z,65.62
2016-11-26T03:23:12.554Z,66.18
2016-11-26T03:24:13.696Z,66.30
2016-11-26T03:25:13.406Z,66.38
2016-11-26T03:26:13.013Z,66.39
2016-11-26T03:27:11.977Z,66.39
2016-11-26T03:28:12.990Z,66.40
2016-11-26T03:29:12.675Z,66.39
2016-11-26T03:30:12.752Z,66.45
2016-11-26T03:31:13.530Z,66.46
2016-11-26T03:32:13.027Z,66.39
2016-11-26T03:33:13.653Z,66.50
2016-11-26T03:34:13.346Z,66.41
2016-11-26T03:35:13.083Z,66.57
2016-11-26T03:36:12.946Z,66.38
2016-11-26T03:37:12.940Z,66.37
2016-11-26T03:38:11.993Z,66.40
2016-11-26T03:39:12.394Z,66.45
2016-11-26T03:40:13.227Z,66.47
2016-11-26T03:41:10.549Z,66.43
2016-11-26T03:42:16.024Z,66.57
2016-11-26T03:43:13.557Z,66.48
2016-11-26T03:44:15.107Z,66.46
2016-11-26T03:45:13.238Z,66.48
2016-11-26T03:46:12.198Z,66.51
2016-11-26T03:47:12.759Z,66.52
2016-11-26T03:48:13.356Z,66.45
2016-11-26T03:49:13.008Z,66.49
2016-11-26T03:50:12.073Z,66.42
2016-11-26T03:51:13.438Z,66.46
2016-11-26T03:52:13.325Z,66.42
2016-11-26T03:53:12.518Z,66.47
2016-11-26T03:54:12.641Z,66.50
2016-11-26T03:55:14.249Z,66.42
2016-11-26T03:56:13.897Z,66.47
2016-11-26T03:57:14.056Z,66.43
2016-11-26T03:58:13.208Z,66.45
2016-11-26T03:59:12.903Z,66.39
2016-11-26T04:00:11.816Z,66.42
2016-11-26T04:01:13.824Z,66.48
2016-11-26T04:02:13.386Z,66.44
2016-11-26T04:03:13.209Z,66.56
2016-11-26T04:04:12.256Z,66.51
2016-11-26T04:05:12.314Z,66.53
2016-11-26T04:06:13.546Z,66.47
2016-11-26T04:07:13.527Z,66.47
2016-11-26T04:08:13.098Z,66.55
2016-11-26T04:09:13.184Z,66.53
2016-11-26T04:10:12.819Z,66.55
2016-11-26T04:11:14.752Z,66.56
2016-11-26T04:12:13.280Z,66.55
2016-11-26T04:13:12.947Z,66.50
2016-11-26T04:14:12.798Z,66.57
2016-11-26T04:15:13.409Z,66.51
2016-11-26T04:16:12.450Z,66.60
2016-11-26T04:17:13.064Z,66.57
2016-11-26T04:18:12.656Z,66.58
2016-11-26T04:19:13.115Z,66.61
2016-11-26T04:20:14.662Z,66.59
2016-11-26T04:21:13.069Z,66.61
2016-11-26T04:22:12.174Z,66.64
2016-11-26T04:23:12.957Z,66.63
2016-11-26T04:24:13.277Z,66.59
2016-11-26T04:25:13.017Z,66.59
2016-11-26T04:26:13.688Z,66.61
2016-11-26T04:27:11.596Z,66.57
2016-11-26T04:28:14.388Z,66.67
2016-11-26T04:29:12.501Z,66.61
2016-11-26T04:30:11.328Z,66.79
2016-11-26T04:31:12.705Z,65.95
2016-11-26T04:32:12.660Z,65.76
2016-11-26T04:33:13.239Z,65.71
2016-11-26T04:34:12.408Z,65.71
2016-11-26T04:35:13.301Z,65.59
2016-11-26T04:36:12.395Z,65.59
2016-11-26T04:37:13.312Z,65.60
2016-11-26T04:38:13.949Z,65.65
2016-11-26T04:39:12.663Z,65.99
2016-11-26T04:40:13.798Z,66.65
2016-11-26T04:41:13.528Z,66.87
2016-11-26T04:42:14.966Z,66.91
2016-11-26T04:43:13.289Z,66.94
2016-11-26T04:44:13.092Z,67.00
2016-11-26T04:45:12.246Z,67.00
2016-11-26T04:46:12.906Z,67.00
2016-11-26T04:47:11.783Z,67.04
2016-11-26T04:48:13.809Z,67.06
2016-11-26T04:49:15.221Z,67.07
2016-11-26T04:50:12.949Z,67.02
2016-11-26T04:51:13.472Z,67.01
2016-11-26T04:52:13.152Z,67.04
2016-11-26T04:53:12.957Z,67.07
2016-11-26T04:54:12.070Z,67.07
2016-11-26T04:55:12.101Z,67.08
2016-11-26T04:56:12.151Z,67.07
2016-11-26T04:57:12.227Z,67.09
2016-11-26T04:58:13.074Z,67.18
2016-11-26T04:59:12.253Z,67.01
2016-11-26T05:00:13.910Z,66.99
2016-11-26T05:01:13.762Z,66.91
2016-11-26T05:02:13.539Z,66.96
2016-11-26T05:03:13.185Z,66.98
2016-11-26T05:04:12.273Z,66.99
2016-11-26T05:05:13.053Z,66.99
2016-11-26T05:06:13.764Z,66.98
2016-11-26T05:07:12.799Z,67.05
2016-11-26T05:08:13.646Z,67.00
2016-11-26T05:09:13.082Z,66.99
2016-11-26T05:10:12.738Z,67.06
2016-11-26T05:11:12.782Z,67.06
2016-11-26T05:12:12.685Z,67.03
2016-11-26T05:13:13.027Z,67.02
2016-11-26T05:14:12.051Z,67.01
2016-11-26T05:15:13.856Z,66.98
2016-11-26T05:16:11.911Z,66.98
2016-11-26T05:17:13.020Z,67.02
2016-11-26T05:18:12.837Z,66.97
2016-11-26T05:19:12.814Z,66.93
2016-11-26T05:20:13.322Z,66.94
2016-11-26T05:21:13.710Z,67.01
2016-11-26T05:22:14.160Z,67.01
2016-11-26T05:23:11.469Z,67.07
2016-11-26T05:24:13.737Z,66.99
2016-11-26T05:25:17.209Z,67.07
2016-11-26T05:26:12.988Z,67.01
2016-11-26T05:27:12.737Z,66.99
2016-11-26T05:28:13.299Z,66.99
2016-11-26T05:29:13.371Z,67.02
2016-11-26T05:30:14.580Z,67.10
2016-11-26T05:31:13.110Z,67.08
2016-11-26T05:32:12.233Z,67.04
2016-11-26T05:33:12.248Z,67.01
2016-11-26T05:34:13.023Z,67.03
2016-11-26T05:35:12.870Z,67.07
2016-11-26T05:36:12.939Z,67.04
2016-11-26T05:37:12.067Z,67.04
2016-11-26T05:38:12.980Z,67.06
2016-11-26T05:39:14.903Z,67.08
2016-11-26T05:40:12.886Z,67.15
2016-11-26T05:41:11.654Z,67.10
2016-11-26T05:42:14.046Z,67.12
2016-11-26T05:43:12.844Z,67.03
2016-11-26T05:44:14.349Z,67.01
2016-11-26T05:45:12.445Z,67.03
2016-11-26T05:46:12.518Z,67.06
2016-11-26T05:47:12.624Z,67.15
2016-11-26T05:48:12.700Z,66.98
2016-11-26T05:49:13.272Z,67.09
2016-11-26T05:50:13.902Z,67.08
2016-11-26T05:51:13.353Z,67.10
2016-11-26T05:52:13.273Z,67.07
2016-11-26T05:53:12.585Z,67.03
2016-11-26T05:54:12.541Z,67.13
2016-11-26T05:55:12.503Z,67.13
2016-11-26T05:56:12.521Z,67.07
2016-11-26T05:57:13.267Z,67.08
2016-11-26T05:58:12.431Z,67.11
2016-11-26T05:59:12.538Z,67.05
2016-11-26T06:00:12.499Z,67.11
2016-11-26T06:01:13.616Z,67.18
2016-11-26T06:02:12.627Z,67.19
2016-11-26T06:03:13.337Z,67.20
2016-11-26T06:04:15.639Z,67.16
2016-11-26T06:05:14.477Z,66.12
2016-11-26T06:06:12.599Z,65.96
2016-11-26T06:07:12.913Z,66.19
2016-11-26T06:08:14.420Z,66.93
2016-11-26T06:09:12.406Z,67.01
2016-11-26T06:10:12.949Z,67.24
2016-11-26T06:11:13.017Z,67.30
2016-11-26T06:12:12.111Z,67.45
2016-11-26T06:13:12.661Z,67.42
2016-11-26T06:14:13.385Z,67.31
2016-11-26T06:15:13.352Z,67.48
2016-11-26T06:16:12.382Z,67.34
2016-11-26T06:17:14.032Z,67.25
2016-11-26T06:18:12.470Z,67.37
2016-11-26T06:19:13.418Z,67.30
2016-11-26T06:20:13.151Z,67.21
2016-11-26T06:21:12.181Z,67.13
2016-11-26T06:22:13.802Z,67.05
2016-11-26T06:23:12.998Z,67.06
2016-11-26T06:24:11.902Z,67.06
2016-11-26T06:25:13.382Z,67.15
2016-11-26T06:26:12.372Z,67.20
2016-11-26T06:27:12.805Z,66.98
2016-11-26T06:28:13.365Z,67.03
2016-11-26T06:29:12.550Z,67.01
2016-11-26T06:30:12.672Z,66.92
2016-11-26T06:31:14.480Z,66.99
2016-11-26T06:32:13.504Z,66.92
2016-11-26T06:33:13.916Z,66.86
2016-11-26T06:34:12.999Z,66.90
2016-11-26T06:35:12.948Z,66.97
2016-11-26T06:36:12.340Z,66.90
2016-11-26T06:37:12.838Z,66.86
2016-11-26T06:38:13.325Z,66.80
2016-11-26T06:39:10.490Z,66.89
2016-11-26T06:40:13.316Z,66.79
2016-11-26T06:41:12.402Z,66.78
2016-11-26T06:42:12.976Z,66.64
2016-11-26T06:43:12.020Z,65.72
2016-11-26T06:44:12.624Z,65.58
2016-11-26T06:45:13.168Z,65.52
2016-11-26T06:46:11.182Z,65.50
2016-11-26T06:47:13.191Z,66.52
2016-11-26T06:48:12.289Z,66.67
2016-11-26T06:49:12.332Z,66.80
2016-11-26T06:50:13.068Z,66.85
2016-11-26T06:51:12.219Z,66.87
2016-11-26T06:52:13.152Z,67.03
2016-11-26T06:53:12.223Z,67.35
2016-11-26T06:54:11.388Z,67.18
2016-11-26T06:55:12.795Z,66.30
2016-11-26T06:56:19.003Z,66.43
2016-11-26T06:57:11.876Z,67.60
2016-11-26T06:58:12.817Z,67.61
2016-11-26T06:59:13.356Z,67.72
2016-11-26T07:00:11.418Z,67.92
2016-11-26T07:01:13.868Z,66.87
2016-11-26T07:02:10.485Z,66.89
2016-11-26T07:03:13.206Z,67.78
2016-11-26T07:04:12.405Z,68.21
2016-11-26T07:05:11.421Z,68.14
2016-11-26T07:06:13.417Z,68.15
2016-11-26T07:07:12.357Z,68.14
2016-11-26T07:08:13.939Z,68.00
2016-11-26T07:09:13.717Z,68.11
2016-11-26T07:10:13.287Z,68.32
2016-11-26T07:11:12.371Z,68.27
2016-11-26T07:12:13.172Z,68.24
2016-11-26T07:13:12.205Z,68.29
2016-11-26T07:14:12.895Z,68.25
2016-11-26T07:15:13.485Z,68.19
2016-11-26T07:16:12.460Z,68.10
2016-11-26T07:17:13.137Z,68.39
2016-11-26T07:18:14.065Z,68.89
2016-11-26T07:19:12.208Z,68.59
2016-11-26T07:20:12.756Z,69.07
2016-11-26T07:21:13.455Z,69.08
2016-11-26T07:22:12.571Z,69.97
2016-11-26T07:23:13.637Z,69.51
2016-11-26T07:24:13.351Z,70.03
2016-11-26T07:25:13.814Z,69.76
2016-11-26T07:26:14.195Z,69.52
2016-11-26T07:27:13.793Z,69.79
2016-11-26T07:28:12.871Z,69.86
2016-11-26T07:29:14.676Z,69.62
2016-11-26T07:30:12.602Z,66.77
2016-11-26T07:31:13.102Z,66.78
2016-11-26T07:32:12.553Z,68.20
2016-11-26T07:33:12.963Z,68.82
2016-11-26T07:34:11.161Z,69.18
2016-11-26T07:35:12.881Z,68.95
2016-11-26T07:36:13.427Z,69.59
2016-11-26T07:37:12.443Z,68.99
2016-11-26T07:38:13.165Z,69.26
2016-11-26T07:39:12.302Z,69.05
2016-11-26T07:40:10.493Z,69.34
2016-11-26T07:41:12.943Z,68.99
2016-11-26T07:42:11.902Z,68.91
2016-11-26T07:43:14.509Z,69.10
2016-11-26T07:44:12.589Z,69.06
2016-11-26T07:45:12.635Z,68.81
2016-11-26T07:46:18.783Z,68.80
2016-11-26T07:47:13.360Z,68.80
2016-11-26T07:48:13.320Z,68.73
2016-11-26T07:49:12.882Z,68.72
2016-11-26T07:50:15.455Z,68.75
2016-11-26T07:51:11.243Z,68.56
2016-11-26T07:52:13.293Z,67.45
2016-11-26T07:53:14.051Z,67.36
2016-11-26T07:54:13.833Z,67.11
2016-11-26T07:55:11.831Z,67.03
2016-11-26T07:56:12.412Z,66.89
2016-11-26T07:57:13.252Z,66.93
2016-11-26T07:58:13.791Z,66.80
2016-11-26T07:59:12.966Z,67.14
2016-11-26T08:00:12.189Z,67.77
2016-11-26T08:01:12.120Z,67.93
2016-11-26T08:02:12.865Z,67.90
2016-11-26T08:03:13.294Z,67.83
2016-11-26T08:04:12.425Z,67.92
2016-11-26T08:05:12.578Z,68.05
2016-11-26T08:06:12.731Z,67.95
2016-11-26T08:07:13.373Z,67.99
2016-11-26T08:08:13.405Z,67.90
2016-11-26T08:09:12.449Z,67.88
2016-11-26T08:10:13.558Z,67.83
2016-11-26T08:11:13.032Z,67.79
2016-11-26T08:12:12.429Z,67.85
2016-11-26T08:13:12.802Z,67.85
2016-11-26T08:14:12.831Z,67.75
2016-11-26T08:15:11.776Z,67.71
2016-11-26T08:16:13.387Z,63.68
2016-11-26T08:17:13.041Z,63.20
2016-11-26T08:18:14.049Z,63.13
2016-11-26T08:19:18.044Z,64.76
2016-11-26T08:20:12.175Z,64.61
2016-11-26T08:21:12.623Z,65.06
2016-11-26T08:22:12.742Z,66.38
2016-11-26T08:23:13.257Z,66.63
2016-11-26T08:24:12.237Z,66.91
2016-11-26T08:25:13.858Z,67.20
2016-11-26T08:26:12.799Z,67.26
2016-11-26T08:27:12.988Z,67.14
2016-11-26T08:28:12.102Z,66.82
2016-11-26T08:29:12.126Z,67.13
2016-11-26T08:30:18.374Z,62.57
2016-11-26T08:31:12.433Z,53.35
2016-11-26T08:32:14.841Z,53.12
2016-11-26T08:33:10.972Z,52.52
2016-11-26T08:34:12.112Z,53.51
2016-11-26T08:35:12.118Z,57.86
2016-11-26T08:36:12.063Z,58.90
2016-11-26T08:37:12.824Z,59.47
2016-11-26T08:38:12.947Z,63.02
2016-11-26T08:39:12.124Z,61.55
2016-11-26T08:40:12.709Z,61.70
2016-11-26T08:41:12.641Z,60.74
2016-11-26T08:42:12.821Z,62.03
2016-11-26T08:43:12.893Z,62.92
2016-11-26T08:44:13.005Z,63.28
2016-11-26T08:45:12.482Z,63.22
2016-11-26T08:46:12.405Z,63.50
2016-11-26T08:47:12.982Z,63.05
2016-11-26T08:48:12.724Z,63.32
2016-11-26T08:49:12.757Z,63.55
2016-11-26T08:50:14.448Z,63.36
2016-11-26T08:51:13.093Z,63.43
2016-11-26T08:52:13.793Z,63.23
2016-11-26T08:53:15.439Z,63.40
2016-11-26T08:54:12.393Z,63.45
2016-11-26T08:55:12.382Z,63.51
2016-11-26T08:56:12.358Z,63.47
2016-11-26T08:57:13.053Z,63.53
2016-11-26T08:58:12.144Z,63.49
2016-11-26T08:59:13.034Z,63.58
2016-11-26T09:00:12.819Z,63.68
2016-11-26T09:01:13.449Z,63.73
2016-11-26T09:02:10.712Z,63.82
2016-11-26T09:03:12.812Z,63.89
2016-11-26T09:04:11.000Z,63.95
2016-11-26T09:05:13.963Z,64.39
2016-11-26T09:06:11.011Z,64.32
2016-11-26T09:07:12.733Z,64.67
2016-11-26T09:08:12.483Z,65.78
2016-11-26T09:09:09.810Z,65.33
2016-11-26T09:10:13.527Z,65.15
2016-11-26T09:11:12.997Z,65.25
2016-11-26T09:12:12.032Z,64.85
2016-11-26T09:13:12.088Z,65.33
2016-11-26T09:14:13.110Z,65.11
2016-11-26T09:15:12.139Z,64.79
2016-11-26T09:16:12.783Z,64.80
2016-11-26T09:17:13.638Z,64.85
2016-11-26T09:18:12.937Z,64.75
2016-11-26T09:19:12.352Z,65.77
2016-11-26T09:20:12.379Z,65.50
2016-11-26T09:21:13.155Z,65.47
2016-11-26T09:22:12.132Z,65.59
2016-11-26T09:23:13.591Z,65.69
2016-11-26T09:24:13.143Z,65.41
2016-11-26T09:25:13.170Z,65.62
2016-11-26T09:26:12.073Z,65.50
2016-11-26T09:27:12.312Z,65.16
2016-11-26T09:28:12.864Z,65.32
2016-11-26T09:29:12.853Z,65.43
2016-11-26T09:30:12.623Z,65.54
2016-11-26T09:31:13.026Z,65.31
2016-11-26T09:32:12.183Z,65.58
2016-11-26T09:33:12.296Z,65.52
2016-11-26T09:34:12.382Z,65.71
2016-11-26T09:35:12.414Z,65.75
2016-11-26T09:36:13.113Z,65.81
2016-11-26T09:37:12.773Z,65.77
2016-11-26T09:38:12.557Z,65.65
2016-11-26T09:39:13.124Z,65.62
2016-11-26T09:40:11.995Z,65.44
2016-11-26T09:41:12.750Z,65.43
2016-11-26T09:42:13.370Z,65.61
2016-11-26T09:43:12.894Z,65.33
2016-11-26T09:44:12.876Z,64.77
2016-11-26T09:45:14.421Z,65.07
2016-11-26T09:46:13.044Z,64.89
2016-11-26T09:47:12.681Z,64.82
2016-11-26T09:48:12.525Z,64.34
2016-11-26T09:49:13.124Z,64.65
2016-11-26T09:50:12.021Z,64.76
2016-11-26T09:51:13.833Z,64.79
2016-11-26T09:52:14.533Z,64.71
2016-11-26T09:53:12.662Z,64.91
2016-11-26T09:54:13.494Z,64.71
2016-11-26T09:55:12.504Z,65.01
2016-11-26T09:56:12.490Z,64.69
2016-11-26T09:57:12.557Z,65.06
2016-11-26T09:58:12.535Z,64.98
2016-11-26T09:59:12.645Z,65.01
2016-11-26T10:00:12.532Z,64.95
2016-11-26T10:01:12.951Z,64.76
2016-11-26T10:02:11.053Z,64.67
2016-11-26T10:03:11.732Z,64.85
2016-11-26T10:04:13.526Z,63.72
2016-11-26T10:05:12.645Z,63.40
2016-11-26T10:06:13.250Z,63.71
2016-11-26T10:07:12.246Z,64.53
2016-11-26T10:08:12.324Z,64.88
2016-11-26T10:09:13.046Z,64.95
2016-11-26T10:10:12.032Z,64.36
2016-11-26T10:11:13.085Z,63.34
2016-11-26T10:12:12.039Z,63.42
2016-11-26T10:13:13.612Z,63.75
2016-11-26T10:14:12.567Z,64.27
2016-11-26T10:15:13.242Z,64.55
2016-11-26T10:16:12.595Z,64.82
2016-11-26T10:17:12.702Z,64.96
2016-11-26T10:18:13.164Z,65.17
2016-11-26T10:19:13.753Z,65.11
2016-11-26T10:20:13.197Z,65.32
2016-11-26T10:21:14.015Z,65.52
2016-11-26T10:22:11.907Z,65.71
2016-11-26T10:23:12.874Z,65.52
2016-11-26T10:24:13.357Z,65.66
2016-11-26T10:25:12.477Z,65.66
2016-11-26T10:26:13.160Z,65.65
2016-11-26T10:27:12.833Z,65.78
2016-11-26T10:28:12.788Z,65.82
2016-11-26T10:29:13.379Z,65.87
2016-11-26T10:30:12.942Z,65.93
2016-11-26T10:31:12.106Z,65.95
2016-11-26T10:32:12.797Z,65.99
2016-11-26T10:33:11.667Z,65.96
2016-11-26T10:34:13.165Z,66.03
2016-11-26T10:35:12.209Z,66.03
2016-11-26T10:36:12.952Z,66.06
2016-11-26T10:37:13.761Z,66.05
2016-11-26T10:38:13.977Z,66.16
2016-11-26T10:39:12.558Z,66.17
2016-11-26T10:40:13.942Z,66.11
2016-11-26T10:41:11.109Z,66.27
2016-11-26T10:42:13.177Z,66.28
2016-11-26T10:43:12.018Z,66.60
2016-11-26T10:44:11.967Z,66.02
2016-11-26T10:45:12.334Z,65.83
2016-11-26T10:46:12.444Z,65.80
2016-11-26T10:47:12.934Z,65.63
2016-11-26T10:48:10.194Z,66.04
2016-11-26T10:49:12.182Z,66.05
2016-11-26T10:50:13.114Z,63.59
2016-11-26T10:51:15.035Z,53.29
2016-11-26T10:52:11.213Z,51.15
2016-11-26T10:53:12.302Z,53.15
2016-11-26T10:54:12.253Z,55.62
2016-11-26T10:55:14.088Z,54.59
2016-11-26T10:56:11.129Z,52.25
2016-11-26T10:57:12.330Z,50.82
2016-11-26T10:58:12.485Z,49.57
2016-11-26T10:59:13.034Z,51.97
2016-11-26T11:00:12.747Z,53.69
2016-11-26T11:01:14.163Z,54.41
2016-11-26T11:02:12.287Z,56.93
2016-11-26T11:03:12.202Z,56.43
2016-11-26T11:04:12.373Z,57.31
2016-11-26T11:05:12.409Z,60.03
2016-11-26T11:06:13.035Z,58.64
2016-11-26T11:07:11.207Z,58.24
2016-11-26T11:08:12.764Z,59.96
2016-11-26T11:09:13.049Z,60.43
2016-11-26T11:10:12.578Z,60.93
2016-11-26T11:11:12.668Z,60.89
2016-11-26T11:12:12.707Z,61.37
2016-11-26T11:13:13.157Z,61.68
2016-11-26T11:14:13.858Z,61.80
2016-11-26T11:15:14.357Z,62.16
2016-11-26T11:16:13.252Z,62.85
2016-11-26T11:17:12.777Z,62.33
2016-11-26T11:18:12.659Z,62.93
2016-11-26T11:19:13.135Z,63.09
2016-11-26T11:20:12.901Z,63.03
2016-11-26T11:21:13.018Z,63.09
2016-11-26T11:22:12.566Z,63.43
2016-11-26T11:23:12.682Z,63.20
2016-11-26T11:24:12.674Z,63.29
2016-11-26T11:25:13.229Z,63.31
2016-11-26T11:26:12.541Z,63.68
2016-11-26T11:27:13.253Z,63.60
2016-11-26T11:28:13.981Z,63.84
2016-11-26T11:29:12.721Z,63.74
2016-11-26T11:30:12.725Z,64.08
2016-11-26T11:31:13.436Z,64.13
2016-11-26T11:32:12.890Z,63.89
2016-11-26T11:33:13.392Z,63.83
2016-11-26T11:34:12.445Z,63.78
2016-11-26T11:35:13.965Z,63.24
2016-11-26T11:36:12.145Z,63.05
2016-11-26T11:37:12.575Z,63.21
2016-11-26T11:38:12.593Z,59.19
2016-11-26T11:39:12.553Z,57.55
2016-11-26T11:40:12.672Z,60.15
2016-11-26T11:41:13.258Z,62.01
2016-11-26T11:42:12.262Z,61.19
2016-11-26T11:43:12.896Z,61.54
2016-11-26T11:44:11.220Z,61.78
2016-11-26T11:45:13.149Z,61.80
2016-11-26T11:46:12.156Z,61.69
2016-11-26T11:47:12.781Z,62.02
2016-11-26T11:48:12.773Z,61.43
2016-11-26T11:49:09.916Z,60.82
2016-11-26T11:50:13.446Z,61.66
2016-11-26T11:51:10.108Z,61.70
2016-11-26T11:52:13.405Z,61.81
2016-11-26T11:53:12.457Z,61.76
2016-11-26T11:54:10.042Z,62.27
2016-11-26T11:55:12.929Z,62.47
2016-11-26T11:56:12.965Z,62.44
2016-11-26T11:57:12.719Z,62.73
2016-11-26T11:58:13.288Z,63.01
2016-11-26T11:59:12.244Z,63.77
2016-11-26T12:00:12.840Z,63.10
2016-11-26T12:01:12.726Z,62.99
2016-11-26T12:02:13.320Z,62.95
2016-11-26T12:03:13.111Z,62.89
2016-11-26T12:04:12.207Z,62.80
2016-11-26T12:05:12.278Z,62.93
2016-11-26T12:06:12.378Z,62.98
2016-11-26T12:07:12.404Z,61.53
2016-11-26T12:08:14.199Z,61.49
2016-11-26T12:09:12.217Z,60.85
2016-11-26T12:10:13.988Z,61.75
2016-11-26T12:11:12.380Z,61.09
2016-11-26T12:12:15.161Z,50.48
2016-11-26T12:13:14.041Z,49.23
2016-11-26T12:14:12.198Z,51.71
2016-11-26T12:15:12.811Z,53.18
2016-11-26T12:16:10.398Z,55.40
2016-11-26T12:17:11.456Z,55.63
2016-11-26T12:18:12.424Z,55.29
2016-11-26T12:19:13.929Z,55.78
2016-11-26T12:20:13.058Z,56.77
2016-11-26T12:21:13.615Z,57.40
2016-11-26T12:22:13.051Z,57.35
2016-11-26T12:23:12.781Z,59.12
2016-11-26T12:24:13.569Z,59.07
2016-11-26T12:25:13.455Z,58.96
2016-11-26T12:26:13.034Z,58.93
2016-11-26T12:27:12.731Z,58.99
2016-11-26T12:28:12.706Z,59.24
2016-11-26T12:29:13.449Z,59.22
2016-11-26T12:30:11.354Z,59.37
2016-11-26T12:31:12.301Z,59.32
2016-11-26T12:32:12.230Z,59.58
2016-11-26T12:33:12.886Z,59.58
2016-11-26T12:34:13.505Z,59.54
2016-11-26T12:35:12.580Z,59.60
2016-11-26T12:36:12.589Z,59.74
2016-11-26T12:37:13.083Z,59.85
2016-11-26T12:38:12.519Z,60.00
2016-11-26T12:39:12.551Z,59.96
2016-11-26T12:40:13.225Z,60.12
2016-11-26T12:41:12.800Z,60.25
2016-11-26T12:42:13.210Z,60.46
2016-11-26T12:43:12.341Z,60.37
2016-11-26T12:44:12.447Z,60.55
2016-11-26T12:45:13.101Z,60.70
2016-11-26T12:46:12.195Z,60.78
2016-11-26T12:47:12.879Z,60.77
2016-11-26T12:48:12.972Z,60.76
2016-11-26T12:49:12.830Z,60.85
2016-11-26T12:50:14.500Z,60.89
2016-11-26T12:51:13.980Z,61.04
2016-11-26T12:52:12.051Z,61.00